Aérodrome :
LOGIN :

S'inscrire | Disclaimer

   EN    FR    IT 

 










Légende :    VFR   VFR Marginal   IFR   IFR Intensif   IFR Très Intensif
Visi : 
Plafond : 
>= 8 km
>= 3000ft
5 à 8 km
1000 à 3000 ft
1500m à 5 km
500 à 1000 ft
800 à 1500m
200 à 500 ft
< 800m
< 200 ft
Symboles :   Orages  Brouillard  Fortes neiges  Fortes précipitations  Vent > 20 kt
SIGMETs :   Divers  Orages  Givrage  Turbulence  Onde Orograph.  Cendres Volcan.






- Altitude de l'aérodrome : 636 ft


LPBJ - Beja Air Base

DERNIER METAR :
  • 182000Z 29006KT 9999 FEW035 16/10 Q1017

METARs EXPIRÉS :
  • 181900Z 29007KT CAVOK 16/09 Q1017
  • 181800Z 29008KT 9999 FEW040 18/09 Q1017

TAF TAF LPBJ
Valide du 18 à 18h jusqu'au 19 à 18h UTC


181701Z 1818/1918 27008KT 9999 SCT030
BECMG 1821/1823 VRB02KT
PROB40 1902/1908 2000 BCFG BKN002
BECMG 1909/1912 20010KT 7000 -RADZ SCT014 BKN025
TEMPO 1911/1918 3000 RADZ SCT008 BKN012
PROB30
TEMPO 1913/1917 21015G28KT 1500 +TSRA SCT004 BKN009
BECMG 1916/1918 28008KT 9999 NSW SCT015



MET'MAP, la Météo Aéronautique d'un coup d'oeil ! - Copyright ORBIFLY Décembre 2007 - Disclaimer

ORBIFLY MET'MAP TEAM :

Programmation & Développement : Alexandra Zaïnal
Conception & Développement : Baudouin d'Aumeries
Co-Programmation & Développement : Marc-Olivier Méhu
Soutien technique & logistique : Manuel Goepfert

Contact : metmap@orbifly.com




SOURCES & CREDITS :

   NOAA